sensor_id;sensor_type;location;lat;lon;timestamp;P1;durP1;ratioP1;P2;durP2;ratioP2
29214;SDS011;16252;49.816;7.964;2023-01-04T00:01:22;5.95;;;2.85;;
29214;SDS011;16252;49.816;7.964;2023-01-04T00:03:47;6.05;;;3.00;;
29214;SDS011;16252;49.816;7.964;2023-01-04T00:06:13;4.28;;;2.80;;
29214;SDS011;16252;49.816;7.964;2023-01-04T00:08:40;4.18;;;2.80;;
29214;SDS011;16252;49.816;7.964;2023-01-04T00:11:06;4.45;;;2.50;;
29214;SDS011;16252;49.816;7.964;2023-01-04T00:13:35;3.92;;;2.65;;
29214;SDS011;16252;49.816;7.964;2023-01-04T00:16:07;3.97;;;2.25;;
29214;SDS011;16252;49.816;7.964;2023-01-04T00:18:36;5.43;;;2.97;;
29214;SDS011;16252;49.816;7.964;2023-01-04T00:21:35;3.05;;;2.17;;
29214;SDS011;16252;49.816;7.964;2023-01-04T00:23:54;4.68;;;2.63;;
29214;SDS011;16252;49.816;7.964;2023-01-04T00:26:22;3.13;;;2.22;;
29214;SDS011;16252;49.816;7.964;2023-01-04T00:28:54;3.80;;;2.53;;
29214;SDS011;16252;49.816;7.964;2023-01-04T00:31:23;3.90;;;2.50;;
29214;SDS011;16252;49.816;7.964;2023-01-04T00:33:49;5.95;;;3.13;;
29214;SDS011;16252;49.816;7.964;2023-01-04T00:36:17;4.35;;;2.90;;
29214;SDS011;16252;49.816;7.964;2023-01-04T00:38:43;4.18;;;2.80;;
29214;SDS011;16252;49.816;7.964;2023-01-04T00:41:08;4.68;;;2.72;;
29214;SDS011;16252;49.816;7.964;2023-01-04T00:43:34;4.03;;;2.55;;
29214;SDS011;16252;49.816;7.964;2023-01-04T00:46:00;4.30;;;2.70;;
29214;SDS011;16252;49.816;7.964;2023-01-04T00:48:26;3.70;;;2.47;;
29214;SDS011;16252;49.816;7.964;2023-01-04T00:50:52;4.78;;;2.83;;
29214;SDS011;16252;49.816;7.964;2023-01-04T00:53:17;4.57;;;2.95;;
29214;SDS011;16252;49.816;7.964;2023-01-04T00:55:43;4.35;;;2.95;;
29214;SDS011;16252;49.816;7.964;2023-01-04T00:58:09;6.03;;;3.08;;
29214;SDS011;16252;49.816;7.964;2023-01-04T01:00:34;5.03;;;2.83;;
29214;SDS011;16252;49.816;7.964;2023-01-04T01:03:00;4.97;;;2.80;;
29214;SDS011;16252;49.816;7.964;2023-01-04T01:05:26;6.00;;;2.95;;
29214;SDS011;16252;49.816;7.964;2023-01-04T01:07:51;3.88;;;3.08;;
29214;SDS011;16252;49.816;7.964;2023-01-04T01:10:16;4.45;;;3.10;;
29214;SDS011;16252;49.816;7.964;2023-01-04T01:12:42;5.85;;;3.15;;
29214;SDS011;16252;49.816;7.964;2023-01-04T01:15:07;3.50;;;2.67;;
29214;SDS011;16252;49.816;7.964;2023-01-04T01:17:33;5.43;;;3.10;;
29214;SDS011;16252;49.816;7.964;2023-01-04T01:20:00;5.35;;;2.88;;
29214;SDS011;16252;49.816;7.964;2023-01-04T01:22:25;4.85;;;2.88;;
29214;SDS011;16252;49.816;7.964;2023-01-04T01:24:50;4.72;;;2.78;;
29214;SDS011;16252;49.816;7.964;2023-01-04T01:27:16;4.65;;;3.17;;
29214;SDS011;16252;49.816;7.964;2023-01-04T01:29:42;5.40;;;2.75;;
29214;SDS011;16252;49.816;7.964;2023-01-04T01:32:07;4.22;;;2.70;;
29214;SDS011;16252;49.816;7.964;2023-01-04T01:34:32;4.55;;;2.63;;
29214;SDS011;16252;49.816;7.964;2023-01-04T01:36:57;6.30;;;2.95;;
29214;SDS011;16252;49.816;7.964;2023-01-04T01:39:23;3.55;;;2.53;;
29214;SDS011;16252;49.816;7.964;2023-01-04T01:41:48;3.53;;;2.47;;
29214;SDS011;16252;49.816;7.964;2023-01-04T01:47:13;4.20;;;2.50;;
29214;SDS011;16252;49.816;7.964;2023-01-04T01:49:41;5.28;;;2.53;;
29214;SDS011;16252;49.816;7.964;2023-01-04T01:52:10;4.35;;;2.67;;
29214;SDS011;16252;49.816;7.964;2023-01-04T01:57:15;4.40;;;2.10;;
29214;SDS011;16252;49.816;7.964;2023-01-04T01:59:44;5.38;;;2.33;;
29214;SDS011;16252;49.816;7.964;2023-01-04T02:04:40;3.25;;;2.45;;
29214;SDS011;16252;49.816;7.964;2023-01-04T02:07:08;4.45;;;2.50;;
29214;SDS011;16252;49.816;7.964;2023-01-04T02:09:37;4.80;;;2.60;;
29214;SDS011;16252;49.816;7.964;2023-01-04T02:12:03;5.35;;;2.33;;
29214;SDS011;16252;49.816;7.964;2023-01-04T02:14:34;4.72;;;2.22;;
29214;SDS011;16252;49.816;7.964;2023-01-04T02:23:00;3.42;;;2.45;;
29214;SDS011;16252;49.816;7.964;2023-01-04T02:31:44;4.43;;;2.55;;
29214;SDS011;16252;49.816;7.964;2023-01-04T02:34:18;2.92;;;2.20;;
29214;SDS011;16252;49.816;7.964;2023-01-04T02:37:07;4.45;;;2.30;;
29214;SDS011;16252;49.816;7.964;2023-01-04T02:40:01;3.70;;;2.17;;
29214;SDS011;16252;49.816;7.964;2023-01-04T02:45:40;3.50;;;2.40;;
29214;SDS011;16252;49.816;7.964;2023-01-04T02:48:10;3.55;;;2.30;;
29214;SDS011;16252;49.816;7.964;2023-01-04T02:50:55;3.08;;;2.22;;
29214;SDS011;16252;49.816;7.964;2023-01-04T02:53:29;3.55;;;2.53;;
29214;SDS011;16252;49.816;7.964;2023-01-04T03:01:50;3.05;;;2.35;;
29214;SDS011;16252;49.816;7.964;2023-01-04T03:08:06;4.45;;;2.58;;
29214;SDS011;16252;49.816;7.964;2023-01-04T03:10:42;5.95;;;2.90;;
29214;SDS011;16252;49.816;7.964;2023-01-04T03:13:24;4.38;;;2.58;;
29214;SDS011;16252;49.816;7.964;2023-01-04T03:15:57;3.33;;;2.53;;
29214;SDS011;16252;49.816;7.964;2023-01-04T03:18:30;3.15;;;2.58;;
29214;SDS011;16252;49.816;7.964;2023-01-04T03:21:00;4.32;;;2.60;;
29214;SDS011;16252;49.816;7.964;2023-01-04T03:23:28;4.20;;;2.67;;
29214;SDS011;16252;49.816;7.964;2023-01-04T03:26:18;5.35;;;2.85;;
29214;SDS011;16252;49.816;7.964;2023-01-04T03:29:11;3.78;;;2.65;;
29214;SDS011;16252;49.816;7.964;2023-01-04T03:32:06;3.78;;;2.70;;
29214;SDS011;16252;49.816;7.964;2023-01-04T03:34:53;4.00;;;2.20;;
29214;SDS011;16252;49.816;7.964;2023-01-04T03:40:38;13.45;;;2.95;;
29214;SDS011;16252;49.816;7.964;2023-01-04T03:43:30;4.13;;;2.55;;
29214;SDS011;16252;49.816;7.964;2023-01-04T03:46:32;4.00;;;2.40;;
29214;SDS011;16252;49.816;7.964;2023-01-04T03:49:26;2.50;;;2.30;;
29214;SDS011;16252;49.816;7.964;2023-01-04T03:52:13;4.53;;;2.42;;
29214;SDS011;16252;49.816;7.964;2023-01-04T03:54:44;4.93;;;2.45;;
29214;SDS011;16252;49.816;7.964;2023-01-04T03:57:12;3.25;;;2.03;;
29214;SDS011;16252;49.816;7.964;2023-01-04T03:59:40;3.97;;;2.40;;
29214;SDS011;16252;49.816;7.964;2023-01-04T04:02:10;2.67;;;2.17;;
29214;SDS011;16252;49.816;7.964;2023-01-04T04:04:38;3.08;;;2.03;;
29214;SDS011;16252;49.816;7.964;2023-01-04T04:07:23;3.45;;;2.20;;
29214;SDS011;16252;49.816;7.964;2023-01-04T04:10:07;2.65;;;2.20;;
29214;SDS011;16252;49.816;7.964;2023-01-04T04:12:32;5.75;;;2.35;;
29214;SDS011;16252;49.816;7.964;2023-01-04T04:14:58;4.30;;;2.65;;
29214;SDS011;16252;49.816;7.964;2023-01-04T04:17:23;4.95;;;2.60;;
29214;SDS011;16252;49.816;7.964;2023-01-04T04:19:48;3.25;;;2.33;;
29214;SDS011;16252;49.816;7.964;2023-01-04T04:22:13;4.50;;;2.28;;
29214;SDS011;16252;49.816;7.964;2023-01-04T04:24:39;2.97;;;2.30;;
29214;SDS011;16252;49.816;7.964;2023-01-04T04:27:04;3.03;;;2.17;;
29214;SDS011;16252;49.816;7.964;2023-01-04T04:29:29;6.28;;;2.30;;
29214;SDS011;16252;49.816;7.964;2023-01-04T04:31:54;3.00;;;2.20;;
29214;SDS011;16252;49.816;7.964;2023-01-04T04:34:20;3.63;;;2.10;;
29214;SDS011;16252;49.816;7.964;2023-01-04T04:36:45;2.63;;;2.20;;
29214;SDS011;16252;49.816;7.964;2023-01-04T04:39:11;5.43;;;2.50;;
29214;SDS011;16252;49.816;7.964;2023-01-04T04:41:37;7.13;;;2.85;;
29214;SDS011;16252;49.816;7.964;2023-01-04T04:44:10;4.35;;;2.55;;
29214;SDS011;16252;49.816;7.964;2023-01-04T04:46:37;4.40;;;2.50;;
29214;SDS011;16252;49.816;7.964;2023-01-04T04:49:03;4.40;;;2.30;;
29214;SDS011;16252;49.816;7.964;2023-01-04T04:51:29;5.53;;;2.08;;
29214;SDS011;16252;49.816;7.964;2023-01-04T04:53:54;4.65;;;2.53;;
29214;SDS011;16252;49.816;7.964;2023-01-04T04:56:19;4.70;;;2.38;;
29214;SDS011;16252;49.816;7.964;2023-01-04T04:58:45;4.13;;;2.38;;
29214;SDS011;16252;49.816;7.964;2023-01-04T05:01:10;3.40;;;2.25;;
29214;SDS011;16252;49.816;7.964;2023-01-04T05:03:36;5.65;;;2.60;;
29214;SDS011;16252;49.816;7.964;2023-01-04T05:06:01;3.45;;;2.53;;
29214;SDS011;16252;49.816;7.964;2023-01-04T05:08:26;4.40;;;2.42;;
29214;SDS011;16252;49.816;7.964;2023-01-04T05:10:52;2.95;;;2.13;;
29214;SDS011;16252;49.816;7.964;2023-01-04T05:13:17;3.67;;;2.22;;
29214;SDS011;16252;49.816;7.964;2023-01-04T05:15:44;5.28;;;2.13;;
29214;SDS011;16252;49.816;7.964;2023-01-04T05:18:12;3.60;;;2.05;;
29214;SDS011;16252;49.816;7.964;2023-01-04T05:20:38;4.18;;;2.28;;
29214;SDS011;16252;49.816;7.964;2023-01-04T05:23:04;4.60;;;2.20;;
29214;SDS011;16252;49.816;7.964;2023-01-04T05:25:31;2.83;;;2.05;;
29214;SDS011;16252;49.816;7.964;2023-01-04T05:27:56;4.40;;;2.00;;
29214;SDS011;16252;49.816;7.964;2023-01-04T05:30:22;4.22;;;2.20;;
29214;SDS011;16252;49.816;7.964;2023-01-04T05:33:06;4.03;;;2.28;;
29214;SDS011;16252;49.816;7.964;2023-01-04T05:35:32;5.97;;;2.25;;
29214;SDS011;16252;49.816;7.964;2023-01-04T05:37:57;3.83;;;2.22;;
29214;SDS011;16252;49.816;7.964;2023-01-04T05:40:22;3.45;;;1.92;;
29214;SDS011;16252;49.816;7.964;2023-01-04T05:42:48;4.05;;;2.05;;
29214;SDS011;16252;49.816;7.964;2023-01-04T05:45:14;3.88;;;2.00;;
29214;SDS011;16252;49.816;7.964;2023-01-04T05:47:40;3.00;;;2.20;;
29214;SDS011;16252;49.816;7.964;2023-01-04T05:50:06;2.20;;;1.77;;
29214;SDS011;16252;49.816;7.964;2023-01-04T05:52:32;3.92;;;2.35;;
29214;SDS011;16252;49.816;7.964;2023-01-04T05:54:58;4.18;;;2.00;;
29214;SDS011;16252;49.816;7.964;2023-01-04T05:57:23;2.50;;;1.85;;
29214;SDS011;16252;49.816;7.964;2023-01-04T05:59:48;3.70;;;2.22;;
29214;SDS011;16252;49.816;7.964;2023-01-04T06:02:15;3.10;;;2.13;;
29214;SDS011;16252;49.816;7.964;2023-01-04T06:04:47;4.13;;;2.08;;
29214;SDS011;16252;49.816;7.964;2023-01-04T06:07:13;3.22;;;2.05;;
29214;SDS011;16252;49.816;7.964;2023-01-04T06:09:38;3.33;;;2.00;;
29214;SDS011;16252;49.816;7.964;2023-01-04T06:12:04;1.85;;;1.60;;
29214;SDS011;16252;49.816;7.964;2023-01-04T06:14:29;4.45;;;2.00;;
29214;SDS011;16252;49.816;7.964;2023-01-04T06:16:55;2.90;;;2.00;;
29214;SDS011;16252;49.816;7.964;2023-01-04T06:19:20;5.90;;;2.20;;
29214;SDS011;16252;49.816;7.964;2023-01-04T06:21:45;3.15;;;1.85;;
29214;SDS011;16252;49.816;7.964;2023-01-04T06:24:11;3.50;;;1.75;;
29214;SDS011;16252;49.816;7.964;2023-01-04T06:26:36;4.05;;;2.35;;
29214;SDS011;16252;49.816;7.964;2023-01-04T06:29:01;3.15;;;1.73;;
29214;SDS011;16252;49.816;7.964;2023-01-04T06:31:27;4.13;;;1.50;;
29214;SDS011;16252;49.816;7.964;2023-01-04T06:33:52;2.28;;;1.90;;
29214;SDS011;16252;49.816;7.964;2023-01-04T06:36:17;2.60;;;1.80;;
29214;SDS011;16252;49.816;7.964;2023-01-04T06:38:42;3.65;;;1.77;;
29214;SDS011;16252;49.816;7.964;2023-01-04T06:41:08;4.65;;;1.98;;
29214;SDS011;16252;49.816;7.964;2023-01-04T06:43:33;3.47;;;2.35;;
29214;SDS011;16252;49.816;7.964;2023-01-04T06:45:58;2.38;;;1.50;;
29214;SDS011;16252;49.816;7.964;2023-01-04T06:48:25;1.85;;;1.50;;
29214;SDS011;16252;49.816;7.964;2023-01-04T06:50:50;2.70;;;1.52;;
29214;SDS011;16252;49.816;7.964;2023-01-04T06:53:16;2.33;;;1.55;;
29214;SDS011;16252;49.816;7.964;2023-01-04T06:55:42;2.78;;;1.60;;
29214;SDS011;16252;49.816;7.964;2023-01-04T06:58:08;2.72;;;1.48;;
29214;SDS011;16252;49.816;7.964;2023-01-04T07:00:33;2.25;;;1.50;;
29214;SDS011;16252;49.816;7.964;2023-01-04T07:02:58;1.83;;;1.45;;
29214;SDS011;16252;49.816;7.964;2023-01-04T07:05:24;3.85;;;1.63;;
29214;SDS011;16252;49.816;7.964;2023-01-04T07:07:49;2.78;;;1.50;;
29214;SDS011;16252;49.816;7.964;2023-01-04T07:10:14;1.58;;;1.20;;
29214;SDS011;16252;49.816;7.964;2023-01-04T07:12:39;1.63;;;1.20;;
29214;SDS011;16252;49.816;7.964;2023-01-04T07:15:05;2.28;;;1.45;;
29214;SDS011;16252;49.816;7.964;2023-01-04T07:17:30;3.33;;;1.77;;
29214;SDS011;16252;49.816;7.964;2023-01-04T07:19:56;1.65;;;1.17;;
29214;SDS011;16252;49.816;7.964;2023-01-04T07:22:21;2.47;;;1.40;;
29214;SDS011;16252;49.816;7.964;2023-01-04T07:24:47;3.03;;;1.48;;
29214;SDS011;16252;49.816;7.964;2023-01-04T07:27:12;2.05;;;1.42;;
29214;SDS011;16252;49.816;7.964;2023-01-04T07:29:37;2.25;;;1.52;;
29214;SDS011;16252;49.816;7.964;2023-01-04T07:32:03;3.63;;;2.47;;
29214;SDS011;16252;49.816;7.964;2023-01-04T07:34:28;2.88;;;2.20;;
29214;SDS011;16252;49.816;7.964;2023-01-04T07:36:55;3.20;;;1.98;;
29214;SDS011;16252;49.816;7.964;2023-01-04T07:39:21;2.10;;;1.40;;
29214;SDS011;16252;49.816;7.964;2023-01-04T07:41:46;4.60;;;1.70;;
29214;SDS011;16252;49.816;7.964;2023-01-04T07:44:13;1.83;;;1.40;;
29214;SDS011;16252;49.816;7.964;2023-01-04T07:46:39;2.05;;;1.38;;
29214;SDS011;16252;49.816;7.964;2023-01-04T07:49:08;1.88;;;1.40;;
29214;SDS011;16252;49.816;7.964;2023-01-04T07:51:35;2.90;;;1.60;;
29214;SDS011;16252;49.816;7.964;2023-01-04T07:54:00;2.30;;;1.40;;
29214;SDS011;16252;49.816;7.964;2023-01-04T07:56:25;5.57;;;1.73;;
29214;SDS011;16252;49.816;7.964;2023-01-04T07:58:51;2.08;;;1.42;;
29214;SDS011;16252;49.816;7.964;2023-01-04T08:01:20;2.97;;;1.52;;
29214;SDS011;16252;49.816;7.964;2023-01-04T08:03:47;2.90;;;1.42;;
29214;SDS011;16252;49.816;7.964;2023-01-04T08:06:13;3.00;;;1.58;;
29214;SDS011;16252;49.816;7.964;2023-01-04T08:08:40;2.33;;;1.63;;
29214;SDS011;16252;49.816;7.964;2023-01-04T08:11:07;3.35;;;1.58;;
29214;SDS011;16252;49.816;7.964;2023-01-04T08:13:34;2.80;;;1.60;;
29214;SDS011;16252;49.816;7.964;2023-01-04T08:16:00;2.28;;;1.30;;
29214;SDS011;16252;49.816;7.964;2023-01-04T08:18:25;2.42;;;1.52;;
29214;SDS011;16252;49.816;7.964;2023-01-04T08:21:00;1.58;;;1.20;;
29214;SDS011;16252;49.816;7.964;2023-01-04T08:23:30;2.90;;;1.40;;
29214;SDS011;16252;49.816;7.964;2023-01-04T08:26:00;2.53;;;1.27;;
29214;SDS011;16252;49.816;7.964;2023-01-04T08:28:33;2.00;;;1.55;;
29214;SDS011;16252;49.816;7.964;2023-01-04T08:31:02;1.67;;;1.20;;
29214;SDS011;16252;49.816;7.964;2023-01-04T08:33:28;1.80;;;1.13;;
29214;SDS011;16252;49.816;7.964;2023-01-04T08:35:53;3.05;;;1.38;;
29214;SDS011;16252;49.816;7.964;2023-01-04T08:38:19;2.67;;;1.48;;
29214;SDS011;16252;49.816;7.964;2023-01-04T08:40:44;2.33;;;1.42;;
29214;SDS011;16252;49.816;7.964;2023-01-04T08:43:09;2.85;;;1.38;;
29214;SDS011;16252;49.816;7.964;2023-01-04T08:45:34;2.35;;;1.42;;
29214;SDS011;16252;49.816;7.964;2023-01-04T08:48:00;2.22;;;1.60;;
29214;SDS011;16252;49.816;7.964;2023-01-04T08:50:25;2.50;;;1.50;;
29214;SDS011;16252;49.816;7.964;2023-01-04T08:52:50;1.95;;;1.25;;
29214;SDS011;16252;49.816;7.964;2023-01-04T08:55:15;2.35;;;1.10;;
29214;SDS011;16252;49.816;7.964;2023-01-04T08:57:41;1.50;;;1.10;;
29214;SDS011;16252;49.816;7.964;2023-01-04T09:00:06;1.85;;;1.10;;
29214;SDS011;16252;49.816;7.964;2023-01-04T09:02:33;2.47;;;1.20;;
29214;SDS011;16252;49.816;7.964;2023-01-04T09:04:58;1.85;;;1.20;;
29214;SDS011;16252;49.816;7.964;2023-01-04T09:07:29;1.73;;;1.38;;
29214;SDS011;16252;49.816;7.964;2023-01-04T09:09:55;1.40;;;1.05;;
29214;SDS011;16252;49.816;7.964;2023-01-04T09:12:21;4.10;;;1.30;;
29214;SDS011;16252;49.816;7.964;2023-01-04T09:14:47;2.33;;;1.33;;
29214;SDS011;16252;49.816;7.964;2023-01-04T09:17:12;3.38;;;1.50;;
29214;SDS011;16252;49.816;7.964;2023-01-04T09:19:37;2.55;;;1.27;;
29214;SDS011;16252;49.816;7.964;2023-01-04T09:22:02;2.22;;;1.23;;
29214;SDS011;16252;49.816;7.964;2023-01-04T09:24:28;4.47;;;2.28;;
29214;SDS011;16252;49.816;7.964;2023-01-04T09:26:53;3.92;;;2.55;;
29214;SDS011;16252;49.816;7.964;2023-01-04T09:29:18;7.07;;;3.70;;
29214;SDS011;16252;49.816;7.964;2023-01-04T09:31:44;5.32;;;3.05;;
29214;SDS011;16252;49.816;7.964;2023-01-04T09:34:10;5.03;;;2.80;;
29214;SDS011;16252;49.816;7.964;2023-01-04T09:36:36;4.70;;;2.40;;
29214;SDS011;16252;49.816;7.964;2023-01-04T09:39:02;2.47;;;2.00;;
29214;SDS011;16252;49.816;7.964;2023-01-04T09:41:28;3.10;;;2.00;;
29214;SDS011;16252;49.816;7.964;2023-01-04T09:49:04;2.95;;;1.85;;
29214;SDS011;16252;49.816;7.964;2023-01-04T09:54:19;2.83;;;2.00;;
29214;SDS011;16252;49.816;7.964;2023-01-04T09:56:48;2.70;;;1.90;;
29214;SDS011;16252;49.816;7.964;2023-01-04T09:59:27;1.90;;;1.70;;
29214;SDS011;16252;49.816;7.964;2023-01-04T10:02:20;2.40;;;1.80;;
29214;SDS011;16252;49.816;7.964;2023-01-04T10:04:48;3.20;;;1.75;;
29214;SDS011;16252;49.816;7.964;2023-01-04T10:07:36;2.17;;;1.83;;
29214;SDS011;16252;49.816;7.964;2023-01-04T10:10:00;2.22;;;1.60;;
29214;SDS011;16252;49.816;7.964;2023-01-04T10:23:19;3.03;;;2.13;;
29214;SDS011;16252;49.816;7.964;2023-01-04T10:28:39;2.15;;;1.27;;
29214;SDS011;16252;49.816;7.964;2023-01-04T10:31:19;3.95;;;1.63;;
29214;SDS011;16252;49.816;7.964;2023-01-04T10:36:48;3.20;;;1.60;;
29214;SDS011;16252;49.816;7.964;2023-01-04T10:39:21;1.85;;;1.58;;
29214;SDS011;16252;49.816;7.964;2023-01-04T10:50:28;4.60;;;2.00;;
29214;SDS011;16252;49.816;7.964;2023-01-04T10:56:11;3.25;;;2.10;;
29214;SDS011;16252;49.816;7.964;2023-01-04T10:58:44;2.38;;;1.60;;
29214;SDS011;16252;49.816;7.964;2023-01-04T11:01:17;3.47;;;1.88;;
29214;SDS011;16252;49.816;7.964;2023-01-04T11:03:54;3.28;;;1.45;;
29214;SDS011;16252;49.816;7.964;2023-01-04T11:06:30;2.17;;;1.33;;
29214;SDS011;16252;49.816;7.964;2023-01-04T11:09:04;1.20;;;1.10;;
29214;SDS011;16252;49.816;7.964;2023-01-04T11:11:43;1.70;;;1.23;;
29214;SDS011;16252;49.816;7.964;2023-01-04T11:14:09;1.55;;;1.20;;
29214;SDS011;16252;49.816;7.964;2023-01-04T11:16:35;2.67;;;1.40;;
29214;SDS011;16252;49.816;7.964;2023-01-04T11:19:03;2.20;;;1.70;;
29214;SDS011;16252;49.816;7.964;2023-01-04T11:21:33;2.60;;;1.50;;
29214;SDS011;16252;49.816;7.964;2023-01-04T11:24:05;1.60;;;1.48;;
29214;SDS011;16252;49.816;7.964;2023-01-04T11:26:34;1.73;;;1.30;;
29214;SDS011;16252;49.816;7.964;2023-01-04T11:29:14;1.77;;;1.33;;
29214;SDS011;16252;49.816;7.964;2023-01-04T11:34:54;2.03;;;1.42;;
29214;SDS011;16252;49.816;7.964;2023-01-04T11:37:22;1.50;;;1.25;;
29214;SDS011;16252;49.816;7.964;2023-01-04T11:40:09;2.13;;;1.15;;
29214;SDS011;16252;49.816;7.964;2023-01-04T11:42:41;0.82;;;0.82;;
29214;SDS011;16252;49.816;7.964;2023-01-04T11:45:15;2.78;;;1.25;;
29214;SDS011;16252;49.816;7.964;2023-01-04T11:47:49;1.45;;;1.15;;
29214;SDS011;16252;49.816;7.964;2023-01-04T11:50:33;1.50;;;1.27;;
29214;SDS011;16252;49.816;7.964;2023-01-04T11:55:48;1.83;;;1.33;;
29214;SDS011;16252;49.816;7.964;2023-01-04T11:58:15;1.30;;;1.20;;
29214;SDS011;16252;49.816;7.964;2023-01-04T12:00:55;6.22;;;1.27;;
29214;SDS011;16252;49.816;7.964;2023-01-04T12:03:31;1.42;;;1.25;;
29214;SDS011;16252;49.816;7.964;2023-01-04T12:06:01;2.30;;;1.35;;
29214;SDS011;16252;49.816;7.964;2023-01-04T12:08:31;2.28;;;1.50;;
29214;SDS011;16252;49.816;7.964;2023-01-04T12:10:59;2.55;;;1.33;;
29214;SDS011;16252;49.816;7.964;2023-01-04T12:13:26;2.13;;;1.45;;
29214;SDS011;16252;49.816;7.964;2023-01-04T12:18:43;3.53;;;1.60;;
29214;SDS011;16252;49.816;7.964;2023-01-04T12:21:31;3.80;;;1.92;;
29214;SDS011;16252;49.816;7.964;2023-01-04T12:23:57;2.42;;;1.73;;
29214;SDS011;16252;49.816;7.964;2023-01-04T12:26:22;2.53;;;1.80;;
29214;SDS011;16252;49.816;7.964;2023-01-04T12:28:52;4.03;;;1.70;;
29214;SDS011;16252;49.816;7.964;2023-01-04T12:31:51;2.95;;;1.30;;
29214;SDS011;16252;49.816;7.964;2023-01-04T12:34:41;1.97;;;1.60;;
29214;SDS011;16252;49.816;7.964;2023-01-04T12:45:43;1.90;;;1.60;;
29214;SDS011;16252;49.816;7.964;2023-01-04T12:48:32;2.80;;;1.77;;
29214;SDS011;16252;49.816;7.964;2023-01-04T12:51:18;2.05;;;1.52;;
29214;SDS011;16252;49.816;7.964;2023-01-04T12:53:54;2.28;;;1.42;;
29214;SDS011;16252;49.816;7.964;2023-01-04T12:56:21;2.30;;;1.60;;
29214;SDS011;16252;49.816;7.964;2023-01-04T12:59:04;1.55;;;1.30;;
29214;SDS011;16252;49.816;7.964;2023-01-04T13:01:31;1.45;;;1.35;;
29214;SDS011;16252;49.816;7.964;2023-01-04T13:04:02;2.00;;;1.52;;
29214;SDS011;16252;49.816;7.964;2023-01-04T13:06:48;1.88;;;1.27;;
29214;SDS011;16252;49.816;7.964;2023-01-04T13:09:17;3.78;;;1.67;;
29214;SDS011;16252;49.816;7.964;2023-01-04T13:11:51;1.77;;;1.30;;
29214;SDS011;16252;49.816;7.964;2023-01-04T13:14:29;2.10;;;1.60;;
29214;SDS011;16252;49.816;7.964;2023-01-04T13:19:37;2.25;;;1.52;;
29214;SDS011;16252;49.816;7.964;2023-01-04T13:22:03;1.73;;;1.02;;
29214;SDS011;16252;49.816;7.964;2023-01-04T13:24:40;2.20;;;1.48;;
29214;SDS011;16252;49.816;7.964;2023-01-04T13:27:11;1.75;;;1.38;;
29214;SDS011;16252;49.816;7.964;2023-01-04T13:29:39;1.60;;;1.25;;
29214;SDS011;16252;49.816;7.964;2023-01-04T13:32:12;1.70;;;1.33;;
29214;SDS011;16252;49.816;7.964;2023-01-04T13:37:32;1.42;;;0.95;;
29214;SDS011;16252;49.816;7.964;2023-01-04T13:42:55;2.45;;;1.50;;
29214;SDS011;16252;49.816;7.964;2023-01-04T13:45:54;2.25;;;1.42;;
29214;SDS011;16252;49.816;7.964;2023-01-04T13:48:33;1.27;;;1.10;;
29214;SDS011;16252;49.816;7.964;2023-01-04T13:51:02;2.33;;;1.38;;
29214;SDS011;16252;49.816;7.964;2023-01-04T13:53:38;3.20;;;1.80;;
29214;SDS011;16252;49.816;7.964;2023-01-04T13:56:04;1.98;;;1.67;;
29214;SDS011;16252;49.816;7.964;2023-01-04T13:58:30;4.20;;;2.38;;
29214;SDS011;16252;49.816;7.964;2023-01-04T14:00:58;5.13;;;2.30;;
29214;SDS011;16252;49.816;7.964;2023-01-04T14:03:31;2.83;;;1.40;;
29214;SDS011;16252;49.816;7.964;2023-01-04T14:06:43;1.20;;;1.10;;
29214;SDS011;16252;49.816;7.964;2023-01-04T14:11:39;1.65;;;1.33;;
29214;SDS011;16252;49.816;7.964;2023-01-04T14:24:50;1.85;;;1.50;;
29214;SDS011;16252;49.816;7.964;2023-01-04T14:27:34;2.15;;;1.52;;
29214;SDS011;16252;49.816;7.964;2023-01-04T14:30:00;1.65;;;1.33;;
29214;SDS011;16252;49.816;7.964;2023-01-04T14:33:01;2.15;;;1.42;;
29214;SDS011;16252;49.816;7.964;2023-01-04T14:35:38;1.90;;;1.17;;
29214;SDS011;16252;49.816;7.964;2023-01-04T14:38:04;2.90;;;1.52;;
29214;SDS011;16252;49.816;7.964;2023-01-04T14:40:34;1.90;;;1.05;;
29214;SDS011;16252;49.816;7.964;2023-01-04T14:43:02;2.38;;;1.60;;
29214;SDS011;16252;49.816;7.964;2023-01-04T14:45:27;1.60;;;1.50;;
29214;SDS011;16252;49.816;7.964;2023-01-04T14:47:53;1.17;;;1.00;;
29214;SDS011;16252;49.816;7.964;2023-01-04T14:50:18;1.55;;;1.27;;
29214;SDS011;16252;49.816;7.964;2023-01-04T14:52:50;2.75;;;1.02;;
29214;SDS011;16252;49.816;7.964;2023-01-04T14:55:16;1.60;;;1.25;;
29214;SDS011;16252;49.816;7.964;2023-01-04T14:57:42;1.90;;;1.30;;
29214;SDS011;16252;49.816;7.964;2023-01-04T15:00:12;1.95;;;1.10;;
29214;SDS011;16252;49.816;7.964;2023-01-04T15:02:39;1.80;;;1.17;;
29214;SDS011;16252;49.816;7.964;2023-01-04T15:05:05;1.52;;;1.00;;
29214;SDS011;16252;49.816;7.964;2023-01-04T15:07:37;2.20;;;1.40;;
29214;SDS011;16252;49.816;7.964;2023-01-04T15:10:05;2.08;;;1.13;;
29214;SDS011;16252;49.816;7.964;2023-01-04T15:12:32;1.58;;;1.25;;
29214;SDS011;16252;49.816;7.964;2023-01-04T15:14:57;1.85;;;0.90;;
29214;SDS011;16252;49.816;7.964;2023-01-04T15:17:23;0.95;;;0.90;;
29214;SDS011;16252;49.816;7.964;2023-01-04T15:19:48;0.80;;;0.80;;
29214;SDS011;16252;49.816;7.964;2023-01-04T15:22:13;1.05;;;0.73;;
29214;SDS011;16252;49.816;7.964;2023-01-04T15:24:38;1.58;;;0.90;;
29214;SDS011;16252;49.816;7.964;2023-01-04T15:27:04;1.52;;;1.00;;
29214;SDS011;16252;49.816;7.964;2023-01-04T15:29:29;0.85;;;0.70;;
29214;SDS011;16252;49.816;7.964;2023-01-04T15:31:54;2.00;;;0.82;;
29214;SDS011;16252;49.816;7.964;2023-01-04T15:34:19;0.70;;;0.70;;
29214;SDS011;16252;49.816;7.964;2023-01-04T15:36:49;0.60;;;0.60;;
29214;SDS011;16252;49.816;7.964;2023-01-04T15:39:14;0.75;;;0.75;;
29214;SDS011;16252;49.816;7.964;2023-01-04T15:41:40;0.90;;;0.90;;
29214;SDS011;16252;49.816;7.964;2023-01-04T15:44:23;0.95;;;0.88;;
29214;SDS011;16252;49.816;7.964;2023-01-04T15:46:49;2.17;;;1.70;;
29214;SDS011;16252;49.816;7.964;2023-01-04T15:49:16;1.30;;;1.02;;
29214;SDS011;16252;49.816;7.964;2023-01-04T15:51:42;2.05;;;1.85;;
29214;SDS011;16252;49.816;7.964;2023-01-04T15:54:07;2.35;;;1.50;;
29214;SDS011;16252;49.816;7.964;2023-01-04T15:56:33;1.30;;;1.20;;
29214;SDS011;16252;49.816;7.964;2023-01-04T15:58:58;1.73;;;1.17;;
29214;SDS011;16252;49.816;7.964;2023-01-04T16:01:24;2.50;;;1.15;;
29214;SDS011;16252;49.816;7.964;2023-01-04T16:03:49;1.42;;;1.05;;
29214;SDS011;16252;49.816;7.964;2023-01-04T16:06:15;1.38;;;0.90;;
29214;SDS011;16252;49.816;7.964;2023-01-04T16:08:41;5.28;;;2.50;;
29214;SDS011;16252;49.816;7.964;2023-01-04T16:11:08;6.10;;;4.18;;
29214;SDS011;16252;49.816;7.964;2023-01-04T16:13:37;3.67;;;2.70;;
29214;SDS011;16252;49.816;7.964;2023-01-04T16:16:03;15.02;;;6.72;;
29214;SDS011;16252;49.816;7.964;2023-01-04T16:18:28;12.13;;;5.82;;
29214;SDS011;16252;49.816;7.964;2023-01-04T16:20:53;7.35;;;3.55;;
29214;SDS011;16252;49.816;7.964;2023-01-04T16:23:19;5.95;;;2.80;;
29214;SDS011;16252;49.816;7.964;2023-01-04T16:25:44;2.63;;;1.67;;
29214;SDS011;16252;49.816;7.964;2023-01-04T16:28:09;2.35;;;1.58;;
29214;SDS011;16252;49.816;7.964;2023-01-04T16:30:34;1.80;;;1.15;;
29214;SDS011;16252;49.816;7.964;2023-01-04T16:33:00;2.08;;;1.13;;
29214;SDS011;16252;49.816;7.964;2023-01-04T16:35:25;1.48;;;1.20;;
29214;SDS011;16252;49.816;7.964;2023-01-04T16:37:50;2.17;;;1.20;;
29214;SDS011;16252;49.816;7.964;2023-01-04T16:40:16;1.70;;;1.20;;
29214;SDS011;16252;49.816;7.964;2023-01-04T16:42:41;1.38;;;1.23;;
29214;SDS011;16252;49.816;7.964;2023-01-04T16:45:07;2.03;;;0.80;;
29214;SDS011;16252;49.816;7.964;2023-01-04T16:47:37;0.73;;;0.68;;
29214;SDS011;16252;49.816;7.964;2023-01-04T16:50:04;0.93;;;0.80;;
29214;SDS011;16252;49.816;7.964;2023-01-04T16:52:31;1.75;;;0.80;;